sensor_id;sensor_type;location;lat;lon;timestamp;temperature;humidity
29803;DHT22;16702;50.898;4.662;2022-10-16T00:02:31;15.60;99.90
29803;DHT22;16702;50.898;4.662;2022-10-16T00:05:01;15.60;99.90
29803;DHT22;16702;50.898;4.662;2022-10-16T00:07:31;15.60;99.90
29803;DHT22;16702;50.898;4.662;2022-10-16T00:10:02;15.60;99.90
29803;DHT22;16702;50.898;4.662;2022-10-16T00:12:35;15.60;99.90
29803;DHT22;16702;50.898;4.662;2022-10-16T00:15:06;15.60;99.90
29803;DHT22;16702;50.898;4.662;2022-10-16T00:17:37;15.60;99.90
29803;DHT22;16702;50.898;4.662;2022-10-16T00:20:08;15.60;99.90
29803;DHT22;16702;50.898;4.662;2022-10-16T00:22:38;15.60;99.90
29803;DHT22;16702;50.898;4.662;2022-10-16T00:25:08;15.60;99.90
29803;DHT22;16702;50.898;4.662;2022-10-16T00:27:41;15.60;99.90
29803;DHT22;16702;50.898;4.662;2022-10-16T00:30:12;15.50;99.90
29803;DHT22;16702;50.898;4.662;2022-10-16T00:32:42;15.50;99.90
29803;DHT22;16702;50.898;4.662;2022-10-16T00:35:12;15.50;99.90
29803;DHT22;16702;50.898;4.662;2022-10-16T00:37:42;15.50;99.90
29803;DHT22;16702;50.898;4.662;2022-10-16T00:40:13;15.50;99.90
29803;DHT22;16702;50.898;4.662;2022-10-16T00:42:46;15.50;99.90
29803;DHT22;16702;50.898;4.662;2022-10-16T00:45:16;15.50;99.90
29803;DHT22;16702;50.898;4.662;2022-10-16T00:47:47;15.50;99.90
29803;DHT22;16702;50.898;4.662;2022-10-16T00:50:24;15.50;99.90
29803;DHT22;16702;50.898;4.662;2022-10-16T00:52:56;15.50;99.90
29803;DHT22;16702;50.898;4.662;2022-10-16T00:55:28;15.40;99.90
29803;DHT22;16702;50.898;4.662;2022-10-16T00:58:01;15.40;99.90
29803;DHT22;16702;50.898;4.662;2022-10-16T01:00:32;15.40;99.90
29803;DHT22;16702;50.898;4.662;2022-10-16T01:03:21;15.40;99.90
29803;DHT22;16702;50.898;4.662;2022-10-16T01:06:01;15.40;99.90
29803;DHT22;16702;50.898;4.662;2022-10-16T01:08:42;15.30;99.90
29803;DHT22;16702;50.898;4.662;2022-10-16T01:11:19;15.40;99.90
29803;DHT22;16702;50.898;4.662;2022-10-16T01:13:57;15.30;99.90
29803;DHT22;16702;50.898;4.662;2022-10-16T01:16:33;15.30;99.90
29803;DHT22;16702;50.898;4.662;2022-10-16T01:19:11;15.30;99.90
29803;DHT22;16702;50.898;4.662;2022-10-16T01:21:43;15.30;99.90
29803;DHT22;16702;50.898;4.662;2022-10-16T01:24:27;15.30;99.90
29803;DHT22;16702;50.898;4.662;2022-10-16T01:27:15;15.30;99.90
29803;DHT22;16702;50.898;4.662;2022-10-16T01:29:52;15.30;99.90
29803;DHT22;16702;50.898;4.662;2022-10-16T01:32:30;15.30;99.90
29803;DHT22;16702;50.898;4.662;2022-10-16T01:35:05;15.30;99.90
29803;DHT22;16702;50.898;4.662;2022-10-16T01:37:46;15.20;99.90
29803;DHT22;16702;50.898;4.662;2022-10-16T01:40:18;15.20;99.90
29803;DHT22;16702;50.898;4.662;2022-10-16T01:42:55;15.20;99.90
29803;DHT22;16702;50.898;4.662;2022-10-16T01:45:28;15.20;99.90
29803;DHT22;16702;50.898;4.662;2022-10-16T01:48:01;15.30;99.90
29803;DHT22;16702;50.898;4.662;2022-10-16T01:50:37;15.20;99.90
29803;DHT22;16702;50.898;4.662;2022-10-16T01:53:10;15.20;99.90
29803;DHT22;16702;50.898;4.662;2022-10-16T01:55:45;15.20;99.90
29803;DHT22;16702;50.898;4.662;2022-10-16T01:58:19;15.20;99.90
29803;DHT22;16702;50.898;4.662;2022-10-16T02:00:52;15.10;99.90
29803;DHT22;16702;50.898;4.662;2022-10-16T02:03:24;15.20;99.90
29803;DHT22;16702;50.898;4.662;2022-10-16T02:05:56;15.20;99.90
29803;DHT22;16702;50.898;4.662;2022-10-16T02:08:29;15.20;99.90
29803;DHT22;16702;50.898;4.662;2022-10-16T02:11:00;15.10;99.90
29803;DHT22;16702;50.898;4.662;2022-10-16T02:13:38;15.10;99.90
29803;DHT22;16702;50.898;4.662;2022-10-16T02:16:10;15.10;99.90
29803;DHT22;16702;50.898;4.662;2022-10-16T02:18:42;15.10;99.90
29803;DHT22;16702;50.898;4.662;2022-10-16T02:21:17;15.10;99.90
29803;DHT22;16702;50.898;4.662;2022-10-16T02:23:54;15.10;99.90
29803;DHT22;16702;50.898;4.662;2022-10-16T02:26:30;15.10;99.90
29803;DHT22;16702;50.898;4.662;2022-10-16T02:29:07;15.10;99.90
29803;DHT22;16702;50.898;4.662;2022-10-16T02:31:43;15.10;99.90
29803;DHT22;16702;50.898;4.662;2022-10-16T02:34:16;15.10;99.90
29803;DHT22;16702;50.898;4.662;2022-10-16T02:36:49;15.10;99.90
29803;DHT22;16702;50.898;4.662;2022-10-16T02:39:20;15.10;99.90
29803;DHT22;16702;50.898;4.662;2022-10-16T02:41:51;15.10;99.90
29803;DHT22;16702;50.898;4.662;2022-10-16T02:44:24;15.10;99.90
29803;DHT22;16702;50.898;4.662;2022-10-16T02:46:54;15.10;99.90
29803;DHT22;16702;50.898;4.662;2022-10-16T02:49:24;15.00;99.90
29803;DHT22;16702;50.898;4.662;2022-10-16T02:51:55;15.10;99.90
29803;DHT22;16702;50.898;4.662;2022-10-16T02:54:25;15.10;99.90
29803;DHT22;16702;50.898;4.662;2022-10-16T02:56:55;15.00;99.90
29803;DHT22;16702;50.898;4.662;2022-10-16T02:59:28;15.00;99.90
29803;DHT22;16702;50.898;4.662;2022-10-16T03:02:00;15.00;99.90
29803;DHT22;16702;50.898;4.662;2022-10-16T03:04:31;15.00;99.90
29803;DHT22;16702;50.898;4.662;2022-10-16T03:07:02;15.00;99.90
29803;DHT22;16702;50.898;4.662;2022-10-16T03:09:32;15.00;99.90
29803;DHT22;16702;50.898;4.662;2022-10-16T03:12:03;15.00;99.90
29803;DHT22;16702;50.898;4.662;2022-10-16T03:14:36;15.00;99.90
29803;DHT22;16702;50.898;4.662;2022-10-16T03:17:07;15.00;99.90
29803;DHT22;16702;50.898;4.662;2022-10-16T03:19:37;15.00;99.90
29803;DHT22;16702;50.898;4.662;2022-10-16T03:22:07;15.00;99.90
29803;DHT22;16702;50.898;4.662;2022-10-16T03:24:38;15.00;99.90
29803;DHT22;16702;50.898;4.662;2022-10-16T03:27:08;15.00;99.90
29803;DHT22;16702;50.898;4.662;2022-10-16T03:29:41;15.00;99.90
29803;DHT22;16702;50.898;4.662;2022-10-16T03:32:12;15.00;99.90
29803;DHT22;16702;50.898;4.662;2022-10-16T03:34:42;15.00;99.90
29803;DHT22;16702;50.898;4.662;2022-10-16T03:37:12;15.00;99.90
29803;DHT22;16702;50.898;4.662;2022-10-16T03:39:43;15.00;99.90
29803;DHT22;16702;50.898;4.662;2022-10-16T03:42:13;14.90;99.90
29803;DHT22;16702;50.898;4.662;2022-10-16T03:44:46;15.00;99.90
29803;DHT22;16702;50.898;4.662;2022-10-16T03:47:16;15.00;99.90
29803;DHT22;16702;50.898;4.662;2022-10-16T03:49:49;15.00;99.90
29803;DHT22;16702;50.898;4.662;2022-10-16T03:52:20;15.00;99.90
29803;DHT22;16702;50.898;4.662;2022-10-16T03:54:50;14.90;99.90
29803;DHT22;16702;50.898;4.662;2022-10-16T03:57:20;14.90;99.90
29803;DHT22;16702;50.898;4.662;2022-10-16T03:59:54;14.90;99.90
29803;DHT22;16702;50.898;4.662;2022-10-16T04:02:25;14.90;99.90
29803;DHT22;16702;50.898;4.662;2022-10-16T04:04:55;14.90;99.90
29803;DHT22;16702;50.898;4.662;2022-10-16T04:07:25;15.00;99.90
29803;DHT22;16702;50.898;4.662;2022-10-16T04:09:56;15.00;99.90
29803;DHT22;16702;50.898;4.662;2022-10-16T04:12:26;14.90;99.90
29803;DHT22;16702;50.898;4.662;2022-10-16T04:14:59;14.90;99.90
29803;DHT22;16702;50.898;4.662;2022-10-16T04:17:29;14.90;99.90
29803;DHT22;16702;50.898;4.662;2022-10-16T04:20:00;14.90;99.90
29803;DHT22;16702;50.898;4.662;2022-10-16T04:22:30;14.90;99.90
29803;DHT22;16702;50.898;4.662;2022-10-16T04:25:01;14.90;99.90
29803;DHT22;16702;50.898;4.662;2022-10-16T04:27:31;14.90;99.90
29803;DHT22;16702;50.898;4.662;2022-10-16T04:30:05;14.90;99.90
29803;DHT22;16702;50.898;4.662;2022-10-16T04:32:35;14.90;99.90
29803;DHT22;16702;50.898;4.662;2022-10-16T04:35:07;14.90;99.90
29803;DHT22;16702;50.898;4.662;2022-10-16T04:37:37;14.90;99.90
29803;DHT22;16702;50.898;4.662;2022-10-16T04:40:08;14.90;99.90
29803;DHT22;16702;50.898;4.662;2022-10-16T04:42:38;14.90;99.90
29803;DHT22;16702;50.898;4.662;2022-10-16T04:45:11;14.90;99.90
29803;DHT22;16702;50.898;4.662;2022-10-16T04:47:43;14.80;99.90
29803;DHT22;16702;50.898;4.662;2022-10-16T04:50:14;14.90;99.90
29803;DHT22;16702;50.898;4.662;2022-10-16T04:53:00;14.80;99.90
29803;DHT22;16702;50.898;4.662;2022-10-16T04:55:31;14.80;99.90
29803;DHT22;16702;50.898;4.662;2022-10-16T04:58:01;14.80;99.90
29803;DHT22;16702;50.898;4.662;2022-10-16T05:00:34;14.90;99.90
29803;DHT22;16702;50.898;4.662;2022-10-16T05:03:05;14.80;99.90
29803;DHT22;16702;50.898;4.662;2022-10-16T05:05:36;14.80;99.90
29803;DHT22;16702;50.898;4.662;2022-10-16T05:08:07;14.80;99.90
29803;DHT22;16702;50.898;4.662;2022-10-16T05:10:37;14.80;99.90
29803;DHT22;16702;50.898;4.662;2022-10-16T05:13:07;14.80;99.90
29803;DHT22;16702;50.898;4.662;2022-10-16T05:15:40;14.80;99.90
29803;DHT22;16702;50.898;4.662;2022-10-16T05:18:11;14.80;99.90
29803;DHT22;16702;50.898;4.662;2022-10-16T05:20:42;14.70;99.90
29803;DHT22;16702;50.898;4.662;2022-10-16T05:23:12;14.70;99.90
29803;DHT22;16702;50.898;4.662;2022-10-16T05:25:42;14.70;99.90
29803;DHT22;16702;50.898;4.662;2022-10-16T05:28:12;14.60;99.90
29803;DHT22;16702;50.898;4.662;2022-10-16T05:30:46;14.70;99.90
29803;DHT22;16702;50.898;4.662;2022-10-16T05:33:16;14.70;99.90
29803;DHT22;16702;50.898;4.662;2022-10-16T05:35:47;14.70;99.90
29803;DHT22;16702;50.898;4.662;2022-10-16T05:38:17;14.70;99.90
29803;DHT22;16702;50.898;4.662;2022-10-16T05:40:51;14.70;99.90
29803;DHT22;16702;50.898;4.662;2022-10-16T05:43:22;14.70;99.90
29803;DHT22;16702;50.898;4.662;2022-10-16T05:45:59;14.60;99.90
29803;DHT22;16702;50.898;4.662;2022-10-16T05:48:30;14.60;99.90
29803;DHT22;16702;50.898;4.662;2022-10-16T05:51:02;14.60;99.90
29803;DHT22;16702;50.898;4.662;2022-10-16T05:53:34;14.60;99.90
29803;DHT22;16702;50.898;4.662;2022-10-16T05:56:06;14.60;99.90
29803;DHT22;16702;50.898;4.662;2022-10-16T05:58:38;14.60;99.90
29803;DHT22;16702;50.898;4.662;2022-10-16T06:01:13;14.60;99.90
29803;DHT22;16702;50.898;4.662;2022-10-16T06:03:44;14.60;99.90
29803;DHT22;16702;50.898;4.662;2022-10-16T06:06:15;14.60;99.90
29803;DHT22;16702;50.898;4.662;2022-10-16T06:08:47;14.60;99.90
29803;DHT22;16702;50.898;4.662;2022-10-16T06:11:19;14.50;99.90
29803;DHT22;16702;50.898;4.662;2022-10-16T06:13:49;14.50;99.90
29803;DHT22;16702;50.898;4.662;2022-10-16T06:16:23;14.50;99.90
29803;DHT22;16702;50.898;4.662;2022-10-16T06:18:55;14.50;99.90
29803;DHT22;16702;50.898;4.662;2022-10-16T06:21:27;14.50;99.90
29803;DHT22;16702;50.898;4.662;2022-10-16T06:23:59;14.50;99.90
29803;DHT22;16702;50.898;4.662;2022-10-16T06:26:30;14.50;99.90
29803;DHT22;16702;50.898;4.662;2022-10-16T06:29:01;14.40;99.90
29803;DHT22;16702;50.898;4.662;2022-10-16T06:31:34;14.40;99.90
29803;DHT22;16702;50.898;4.662;2022-10-16T06:34:04;14.40;99.90
29803;DHT22;16702;50.898;4.662;2022-10-16T06:36:36;14.40;99.90
29803;DHT22;16702;50.898;4.662;2022-10-16T06:39:07;14.40;99.90
29803;DHT22;16702;50.898;4.662;2022-10-16T06:41:37;14.40;99.90
29803;DHT22;16702;50.898;4.662;2022-10-16T06:44:15;14.40;99.90
29803;DHT22;16702;50.898;4.662;2022-10-16T06:46:47;14.40;99.90
29803;DHT22;16702;50.898;4.662;2022-10-16T06:49:18;14.40;99.90
29803;DHT22;16702;50.898;4.662;2022-10-16T06:51:50;14.40;99.90
29803;DHT22;16702;50.898;4.662;2022-10-16T06:54:20;14.40;99.90
29803;DHT22;16702;50.898;4.662;2022-10-16T06:56:51;14.50;99.90
29803;DHT22;16702;50.898;4.662;2022-10-16T06:59:22;14.40;99.90
29803;DHT22;16702;50.898;4.662;2022-10-16T07:01:55;14.40;99.90
29803;DHT22;16702;50.898;4.662;2022-10-16T07:04:25;14.40;99.90
29803;DHT22;16702;50.898;4.662;2022-10-16T07:06:55;14.40;99.90
29803;DHT22;16702;50.898;4.662;2022-10-16T07:09:26;14.40;99.90
29803;DHT22;16702;50.898;4.662;2022-10-16T07:12:16;14.50;99.90
29803;DHT22;16702;50.898;4.662;2022-10-16T07:14:46;14.50;99.90
29803;DHT22;16702;50.898;4.662;2022-10-16T07:17:22;14.50;99.90
29803;DHT22;16702;50.898;4.662;2022-10-16T07:19:52;14.50;99.90
29803;DHT22;16702;50.898;4.662;2022-10-16T07:22:22;14.50;99.90
29803;DHT22;16702;50.898;4.662;2022-10-16T07:24:53;14.50;99.90
29803;DHT22;16702;50.898;4.662;2022-10-16T07:27:23;14.60;99.90
29803;DHT22;16702;50.898;4.662;2022-10-16T07:29:54;14.60;99.90
29803;DHT22;16702;50.898;4.662;2022-10-16T07:32:27;14.60;99.90
29803;DHT22;16702;50.898;4.662;2022-10-16T07:34:58;14.60;99.90
29803;DHT22;16702;50.898;4.662;2022-10-16T07:37:28;14.60;99.90
29803;DHT22;16702;50.898;4.662;2022-10-16T07:39:59;14.70;99.90
29803;DHT22;16702;50.898;4.662;2022-10-16T07:42:29;14.70;99.90
29803;DHT22;16702;50.898;4.662;2022-10-16T07:44:59;14.70;99.90
29803;DHT22;16702;50.898;4.662;2022-10-16T07:47:32;14.70;99.90
29803;DHT22;16702;50.898;4.662;2022-10-16T07:50:03;14.70;99.90
29803;DHT22;16702;50.898;4.662;2022-10-16T07:52:34;14.70;99.90
29803;DHT22;16702;50.898;4.662;2022-10-16T07:55:05;14.80;99.90
29803;DHT22;16702;50.898;4.662;2022-10-16T07:57:35;14.80;99.90
29803;DHT22;16702;50.898;4.662;2022-10-16T08:00:07;14.80;99.90
29803;DHT22;16702;50.898;4.662;2022-10-16T08:02:43;14.80;99.90
29803;DHT22;16702;50.898;4.662;2022-10-16T08:05:14;14.90;99.90
29803;DHT22;16702;50.898;4.662;2022-10-16T08:07:48;15.00;99.90
29803;DHT22;16702;50.898;4.662;2022-10-16T08:10:20;15.00;99.90
29803;DHT22;16702;50.898;4.662;2022-10-16T08:12:51;15.00;99.90
29803;DHT22;16702;50.898;4.662;2022-10-16T08:15:22;15.00;99.90
29803;DHT22;16702;50.898;4.662;2022-10-16T08:18:03;15.00;99.90
29803;DHT22;16702;50.898;4.662;2022-10-16T08:20:33;15.10;99.90
29803;DHT22;16702;50.898;4.662;2022-10-16T08:23:04;15.10;99.90
29803;DHT22;16702;50.898;4.662;2022-10-16T08:25:35;15.20;99.90
29803;DHT22;16702;50.898;4.662;2022-10-16T08:28:06;15.20;99.90
29803;DHT22;16702;50.898;4.662;2022-10-16T08:30:37;15.30;99.90
29803;DHT22;16702;50.898;4.662;2022-10-16T08:33:10;15.30;99.90
29803;DHT22;16702;50.898;4.662;2022-10-16T08:35:41;15.30;99.90
29803;DHT22;16702;50.898;4.662;2022-10-16T08:38:11;15.30;99.90
29803;DHT22;16702;50.898;4.662;2022-10-16T08:40:42;15.40;99.90
29803;DHT22;16702;50.898;4.662;2022-10-16T08:43:29;15.40;99.90
29803;DHT22;16702;50.898;4.662;2022-10-16T08:46:11;15.40;99.90
29803;DHT22;16702;50.898;4.662;2022-10-16T08:48:50;15.50;99.90
29803;DHT22;16702;50.898;4.662;2022-10-16T08:51:23;15.50;99.90
29803;DHT22;16702;50.898;4.662;2022-10-16T08:53:56;15.50;99.90
29803;DHT22;16702;50.898;4.662;2022-10-16T08:56:27;15.60;99.90
29803;DHT22;16702;50.898;4.662;2022-10-16T08:58:59;15.60;99.90
29803;DHT22;16702;50.898;4.662;2022-10-16T09:01:38;15.70;99.90
29803;DHT22;16702;50.898;4.662;2022-10-16T09:04:43;15.70;99.90
29803;DHT22;16702;50.898;4.662;2022-10-16T09:07:26;15.80;99.90
29803;DHT22;16702;50.898;4.662;2022-10-16T09:10:16;15.80;99.90
29803;DHT22;16702;50.898;4.662;2022-10-16T09:12:54;15.80;99.90
29803;DHT22;16702;50.898;4.662;2022-10-16T09:15:31;15.90;99.90
29803;DHT22;16702;50.898;4.662;2022-10-16T09:18:09;16.00;99.90
29803;DHT22;16702;50.898;4.662;2022-10-16T09:20:49;16.00;99.90
29803;DHT22;16702;50.898;4.662;2022-10-16T09:23:32;16.00;99.90
29803;DHT22;16702;50.898;4.662;2022-10-16T09:26:04;16.10;99.90
29803;DHT22;16702;50.898;4.662;2022-10-16T09:28:35;16.20;99.90
29803;DHT22;16702;50.898;4.662;2022-10-16T09:31:07;16.20;99.90
29803;DHT22;16702;50.898;4.662;2022-10-16T09:33:41;16.20;99.90
29803;DHT22;16702;50.898;4.662;2022-10-16T09:36:14;16.30;99.90
29803;DHT22;16702;50.898;4.662;2022-10-16T09:38:45;16.30;99.90
29803;DHT22;16702;50.898;4.662;2022-10-16T09:41:18;16.30;99.90
29803;DHT22;16702;50.898;4.662;2022-10-16T09:43:53;16.40;99.90
29803;DHT22;16702;50.898;4.662;2022-10-16T09:46:28;16.50;99.90
29803;DHT22;16702;50.898;4.662;2022-10-16T09:49:01;16.50;99.90
29803;DHT22;16702;50.898;4.662;2022-10-16T09:51:36;16.60;99.90
29803;DHT22;16702;50.898;4.662;2022-10-16T09:54:14;16.60;99.90
29803;DHT22;16702;50.898;4.662;2022-10-16T09:56:45;16.70;99.90
29803;DHT22;16702;50.898;4.662;2022-10-16T09:59:20;16.70;99.90
29803;DHT22;16702;50.898;4.662;2022-10-16T10:01:52;16.80;99.90
29803;DHT22;16702;50.898;4.662;2022-10-16T10:04:24;16.80;99.90
29803;DHT22;16702;50.898;4.662;2022-10-16T10:06:58;16.90;99.90
29803;DHT22;16702;50.898;4.662;2022-10-16T10:09:33;16.90;99.90
29803;DHT22;16702;50.898;4.662;2022-10-16T10:12:18;17.00;99.90
29803;DHT22;16702;50.898;4.662;2022-10-16T10:14:55;17.10;99.90
29803;DHT22;16702;50.898;4.662;2022-10-16T10:17:27;17.10;99.90
29803;DHT22;16702;50.898;4.662;2022-10-16T10:19:59;17.20;99.90
29803;DHT22;16702;50.898;4.662;2022-10-16T10:22:42;17.20;99.90
29803;DHT22;16702;50.898;4.662;2022-10-16T10:25:19;17.30;99.90
29803;DHT22;16702;50.898;4.662;2022-10-16T10:28:01;17.40;99.90
29803;DHT22;16702;50.898;4.662;2022-10-16T10:30:39;17.50;99.90
29803;DHT22;16702;50.898;4.662;2022-10-16T10:33:21;17.60;99.90
29803;DHT22;16702;50.898;4.662;2022-10-16T10:36:01;17.60;99.90
29803;DHT22;16702;50.898;4.662;2022-10-16T10:38:42;17.70;99.90
29803;DHT22;16702;50.898;4.662;2022-10-16T10:44:24;17.70;99.90
29803;DHT22;16702;50.898;4.662;2022-10-16T10:47:06;17.70;99.90
29803;DHT22;16702;50.898;4.662;2022-10-16T10:49:50;17.90;99.90
29803;DHT22;16702;50.898;4.662;2022-10-16T10:52:40;18.10;99.90
29803;DHT22;16702;50.898;4.662;2022-10-16T10:55:21;18.20;99.90
29803;DHT22;16702;50.898;4.662;2022-10-16T10:58:21;18.20;99.90
29803;DHT22;16702;50.898;4.662;2022-10-16T11:01:02;18.20;99.90
29803;DHT22;16702;50.898;4.662;2022-10-16T11:03:55;18.30;99.90
29803;DHT22;16702;50.898;4.662;2022-10-16T11:06:31;18.30;99.90
29803;DHT22;16702;50.898;4.662;2022-10-16T11:09:09;18.40;99.90
29803;DHT22;16702;50.898;4.662;2022-10-16T11:11:48;18.20;99.90
29803;DHT22;16702;50.898;4.662;2022-10-16T11:14:23;18.20;99.90
29803;DHT22;16702;50.898;4.662;2022-10-16T11:16:59;18.40;99.90
29803;DHT22;16702;50.898;4.662;2022-10-16T11:19:36;18.40;99.90
29803;DHT22;16702;50.898;4.662;2022-10-16T11:22:15;18.30;99.90
29803;DHT22;16702;50.898;4.662;2022-10-16T11:24:50;18.50;99.90
29803;DHT22;16702;50.898;4.662;2022-10-16T11:27:34;18.60;99.90
29803;DHT22;16702;50.898;4.662;2022-10-16T11:30:14;18.60;99.90
29803;DHT22;16702;50.898;4.662;2022-10-16T11:32:55;18.60;99.90
29803;DHT22;16702;50.898;4.662;2022-10-16T11:35:37;18.70;99.90
29803;DHT22;16702;50.898;4.662;2022-10-16T11:38:25;18.80;99.90
29803;DHT22;16702;50.898;4.662;2022-10-16T11:41:03;18.70;99.90
29803;DHT22;16702;50.898;4.662;2022-10-16T11:43:43;18.60;99.90
29803;DHT22;16702;50.898;4.662;2022-10-16T11:46:18;18.70;99.90
29803;DHT22;16702;50.898;4.662;2022-10-16T11:48:51;18.70;99.90
29803;DHT22;16702;50.898;4.662;2022-10-16T11:51:31;18.80;99.90
29803;DHT22;16702;50.898;4.662;2022-10-16T11:54:08;18.90;99.90
29803;DHT22;16702;50.898;4.662;2022-10-16T11:56:46;18.80;99.90
29803;DHT22;16702;50.898;4.662;2022-10-16T11:59:25;18.60;99.90
29803;DHT22;16702;50.898;4.662;2022-10-16T12:02:19;18.50;99.90
29803;DHT22;16702;50.898;4.662;2022-10-16T12:04:57;18.50;99.90
29803;DHT22;16702;50.898;4.662;2022-10-16T12:07:35;18.50;99.90
29803;DHT22;16702;50.898;4.662;2022-10-16T12:10:11;18.50;99.90
29803;DHT22;16702;50.898;4.662;2022-10-16T12:12:54;18.50;99.90
29803;DHT22;16702;50.898;4.662;2022-10-16T12:15:29;18.60;99.90
29803;DHT22;16702;50.898;4.662;2022-10-16T12:18:21;18.60;99.90
29803;DHT22;16702;50.898;4.662;2022-10-16T12:20:56;18.60;99.90
29803;DHT22;16702;50.898;4.662;2022-10-16T12:23:32;18.70;99.90
29803;DHT22;16702;50.898;4.662;2022-10-16T12:26:06;18.70;99.90
29803;DHT22;16702;50.898;4.662;2022-10-16T12:28:36;18.70;99.90
29803;DHT22;16702;50.898;4.662;2022-10-16T12:31:10;18.80;99.90
29803;DHT22;16702;50.898;4.662;2022-10-16T12:33:42;18.60;99.90
29803;DHT22;16702;50.898;4.662;2022-10-16T12:36:15;18.80;99.90
29803;DHT22;16702;50.898;4.662;2022-10-16T12:38:52;18.70;99.90
29803;DHT22;16702;50.898;4.662;2022-10-16T12:41:27;18.80;99.90
29803;DHT22;16702;50.898;4.662;2022-10-16T12:43:59;18.80;99.90
29803;DHT22;16702;50.898;4.662;2022-10-16T12:46:40;19.00;99.90
29803;DHT22;16702;50.898;4.662;2022-10-16T12:49:30;19.00;99.90
29803;DHT22;16702;50.898;4.662;2022-10-16T12:52:01;18.90;99.90
29803;DHT22;16702;50.898;4.662;2022-10-16T12:54:35;18.90;99.90
29803;DHT22;16702;50.898;4.662;2022-10-16T12:57:23;18.90;99.90
29803;DHT22;16702;50.898;4.662;2022-10-16T13:00:04;18.90;99.90
29803;DHT22;16702;50.898;4.662;2022-10-16T13:03:20;18.90;99.90
29803;DHT22;16702;50.898;4.662;2022-10-16T13:06:02;18.90;99.90
29803;DHT22;16702;50.898;4.662;2022-10-16T13:12:13;18.90;99.90
29803;DHT22;16702;50.898;4.662;2022-10-16T13:15:04;18.90;99.90
29803;DHT22;16702;50.898;4.662;2022-10-16T13:17:42;19.00;99.90
29803;DHT22;16702;50.898;4.662;2022-10-16T13:20:24;19.00;99.90
29803;DHT22;16702;50.898;4.662;2022-10-16T13:23:05;19.00;99.90
29803;DHT22;16702;50.898;4.662;2022-10-16T13:25:48;19.00;99.90
29803;DHT22;16702;50.898;4.662;2022-10-16T13:28:28;19.10;99.90
29803;DHT22;16702;50.898;4.662;2022-10-16T13:31:00;19.00;99.90
29803;DHT22;16702;50.898;4.662;2022-10-16T13:33:34;19.00;99.90
29803;DHT22;16702;50.898;4.662;2022-10-16T13:36:19;19.00;99.90
29803;DHT22;16702;50.898;4.662;2022-10-16T13:39:00;19.10;99.90
29803;DHT22;16702;50.898;4.662;2022-10-16T13:41:31;19.10;99.90
29803;DHT22;16702;50.898;4.662;2022-10-16T13:44:01;19.00;99.90
29803;DHT22;16702;50.898;4.662;2022-10-16T13:46:32;19.10;99.90
29803;DHT22;16702;50.898;4.662;2022-10-16T13:49:05;19.20;99.90
29803;DHT22;16702;50.898;4.662;2022-10-16T13:51:38;19.20;99.90
29803;DHT22;16702;50.898;4.662;2022-10-16T13:54:10;19.10;99.90
29803;DHT22;16702;50.898;4.662;2022-10-16T13:56:40;19.00;99.90
29803;DHT22;16702;50.898;4.662;2022-10-16T13:59:23;19.00;99.90
29803;DHT22;16702;50.898;4.662;2022-10-16T14:01:56;19.00;99.90
29803;DHT22;16702;50.898;4.662;2022-10-16T14:04:30;19.00;99.90
29803;DHT22;16702;50.898;4.662;2022-10-16T14:07:04;19.00;99.90
29803;DHT22;16702;50.898;4.662;2022-10-16T14:09:34;19.00;99.90
29803;DHT22;16702;50.898;4.662;2022-10-16T14:12:09;19.00;99.90
29803;DHT22;16702;50.898;4.662;2022-10-16T14:14:42;19.10;99.90
29803;DHT22;16702;50.898;4.662;2022-10-16T14:17:19;19.10;99.90
29803;DHT22;16702;50.898;4.662;2022-10-16T14:19:52;19.00;99.90
29803;DHT22;16702;50.898;4.662;2022-10-16T14:22:36;19.10;99.90
29803;DHT22;16702;50.898;4.662;2022-10-16T14:25:22;19.00;99.90
29803;DHT22;16702;50.898;4.662;2022-10-16T14:28:02;19.00;99.90
29803;DHT22;16702;50.898;4.662;2022-10-16T14:30:35;19.00;99.90
29803;DHT22;16702;50.898;4.662;2022-10-16T14:33:19;19.00;99.90
29803;DHT22;16702;50.898;4.662;2022-10-16T14:36:02;19.00;99.90
29803;DHT22;16702;50.898;4.662;2022-10-16T14:38:37;19.00;99.90
29803;DHT22;16702;50.898;4.662;2022-10-16T14:41:08;19.00;99.90
29803;DHT22;16702;50.898;4.662;2022-10-16T14:43:40;19.00;99.90
29803;DHT22;16702;50.898;4.662;2022-10-16T14:46:17;19.00;99.90
29803;DHT22;16702;50.898;4.662;2022-10-16T14:48:50;19.10;99.90
29803;DHT22;16702;50.898;4.662;2022-10-16T14:51:21;19.10;99.90
29803;DHT22;16702;50.898;4.662;2022-10-16T14:53:54;19.10;99.90
29803;DHT22;16702;50.898;4.662;2022-10-16T14:56:29;19.10;99.90
29803;DHT22;16702;50.898;4.662;2022-10-16T14:59:00;19.10;99.90
29803;DHT22;16702;50.898;4.662;2022-10-16T15:01:31;19.10;99.90
29803;DHT22;16702;50.898;4.662;2022-10-16T15:04:02;19.10;99.90
29803;DHT22;16702;50.898;4.662;2022-10-16T15:06:32;19.00;99.90
29803;DHT22;16702;50.898;4.662;2022-10-16T15:09:05;19.00;99.90
29803;DHT22;16702;50.898;4.662;2022-10-16T15:11:36;19.00;99.90
29803;DHT22;16702;50.898;4.662;2022-10-16T15:14:08;19.00;99.90
29803;DHT22;16702;50.898;4.662;2022-10-16T15:16:38;19.00;99.90
29803;DHT22;16702;50.898;4.662;2022-10-16T15:19:09;19.00;99.90
29803;DHT22;16702;50.898;4.662;2022-10-16T15:21:39;19.00;99.90
29803;DHT22;16702;50.898;4.662;2022-10-16T15:24:14;19.00;99.90
29803;DHT22;16702;50.898;4.662;2022-10-16T15:26:47;19.00;99.90
29803;DHT22;16702;50.898;4.662;2022-10-16T15:29:18;19.00;99.90
29803;DHT22;16702;50.898;4.662;2022-10-16T15:31:48;19.00;99.90
29803;DHT22;16702;50.898;4.662;2022-10-16T15:34:18;18.90;99.90
29803;DHT22;16702;50.898;4.662;2022-10-16T15:36:49;18.90;99.90
29803;DHT22;16702;50.898;4.662;2022-10-16T15:39:22;18.90;99.90
29803;DHT22;16702;50.898;4.662;2022-10-16T15:41:52;18.90;99.90
29803;DHT22;16702;50.898;4.662;2022-10-16T15:44:22;18.80;99.90
29803;DHT22;16702;50.898;4.662;2022-10-16T15:46:56;18.80;99.90
29803;DHT22;16702;50.898;4.662;2022-10-16T15:49:28;18.80;99.90
29803;DHT22;16702;50.898;4.662;2022-10-16T15:51:58;18.80;99.90
29803;DHT22;16702;50.898;4.662;2022-10-16T15:54:31;18.80;99.90
29803;DHT22;16702;50.898;4.662;2022-10-16T15:57:02;18.80;99.90
29803;DHT22;16702;50.898;4.662;2022-10-16T15:59:32;18.80;99.90
29803;DHT22;16702;50.898;4.662;2022-10-16T16:02:02;18.80;99.90
29803;DHT22;16702;50.898;4.662;2022-10-16T16:04:33;18.70;99.90
29803;DHT22;16702;50.898;4.662;2022-10-16T16:07:11;18.70;99.90
29803;DHT22;16702;50.898;4.662;2022-10-16T16:09:44;18.70;99.90
29803;DHT22;16702;50.898;4.662;2022-10-16T16:12:14;18.70;99.90
29803;DHT22;16702;50.898;4.662;2022-10-16T16:14:45;18.60;99.90
29803;DHT22;16702;50.898;4.662;2022-10-16T16:17:16;18.60;99.90
29803;DHT22;16702;50.898;4.662;2022-10-16T16:19:46;18.60;99.90
29803;DHT22;16702;50.898;4.662;2022-10-16T16:22:17;18.60;99.90